createdAt,value
2023-09-19T00:02:26.818Z,2.60
2023-09-19T00:05:13.274Z,2.40
2023-09-19T00:07:41.003Z,2.80
2023-09-19T00:10:09.005Z,2.43
2023-09-19T00:12:36.620Z,2.57
2023-09-19T00:15:04.323Z,2.80
2023-09-19T00:17:31.926Z,2.60
2023-09-19T00:19:59.513Z,2.93
2023-09-19T00:22:27.132Z,2.70
2023-09-19T00:24:54.699Z,2.40
2023-09-19T00:27:22.269Z,2.50
2023-09-19T00:29:49.803Z,2.60
2023-09-19T00:32:17.437Z,3.00
2023-09-19T00:34:44.973Z,2.80
2023-09-19T00:37:12.602Z,2.60
2023-09-19T00:39:40.188Z,2.50
2023-09-19T00:42:07.837Z,3.20
2023-09-19T00:44:35.343Z,2.47
2023-09-19T00:47:03.070Z,2.70
2023-09-19T00:49:31.961Z,2.73
2023-09-19T00:51:59.675Z,2.83
2023-09-19T00:54:27.316Z,3.00
2023-09-19T00:56:54.882Z,2.13
2023-09-19T00:59:22.475Z,2.67
2023-09-19T01:01:50.151Z,2.97
2023-09-19T01:04:17.841Z,4.20
2023-09-19T01:06:45.547Z,2.67
2023-09-19T01:09:13.244Z,2.90
2023-09-19T01:11:44.649Z,2.50
2023-09-19T01:14:12.281Z,2.50
2023-09-19T01:16:42.790Z,2.43
2023-09-19T01:19:29.090Z,2.13
2023-09-19T01:22:03.656Z,3.50
2023-09-19T01:24:50.133Z,2.70
2023-09-19T01:27:35.784Z,2.53
2023-09-19T01:30:09.514Z,2.40
2023-09-19T01:32:38.125Z,2.70
2023-09-19T01:35:05.882Z,2.87
2023-09-19T01:37:33.596Z,2.33
2023-09-19T01:40:04.126Z,3.13
2023-09-19T01:42:50.456Z,2.67
2023-09-19T01:45:24.215Z,2.80
2023-09-19T01:47:53.773Z,2.80
2023-09-19T01:50:24.398Z,2.70
2023-09-19T01:52:58.768Z,2.50
2023-09-19T01:55:28.531Z,2.93
2023-09-19T01:58:02.897Z,2.60
2023-09-19T02:00:30.950Z,2.57
2023-09-19T02:02:59.905Z,2.87
2023-09-19T02:05:27.827Z,2.80
2023-09-19T02:07:55.548Z,2.93
2023-09-19T02:10:23.605Z,2.53
2023-09-19T02:12:52.014Z,2.50
2023-09-19T02:15:19.933Z,2.43
2023-09-19T02:17:47.556Z,2.43
2023-09-19T02:20:15.225Z,3.17
2023-09-19T02:22:43.336Z,2.30
2023-09-19T02:25:11.000Z,3.17
2023-09-19T02:27:38.795Z,2.90
2023-09-19T02:30:06.730Z,2.53
2023-09-19T02:32:34.327Z,2.60
2023-09-19T02:35:02.067Z,3.10
2023-09-19T02:37:29.739Z,2.60
2023-09-19T02:39:57.428Z,3.20
2023-09-19T02:42:25.087Z,2.73
2023-09-19T02:44:52.744Z,3.30
2023-09-19T02:47:20.445Z,2.60
2023-09-19T02:49:48.142Z,2.57
2023-09-19T02:52:15.929Z,2.60
2023-09-19T02:54:43.655Z,2.30
2023-09-19T02:57:11.243Z,2.77
2023-09-19T02:59:38.877Z,2.87
2023-09-19T03:02:06.617Z,2.57
2023-09-19T03:04:34.403Z,2.70
2023-09-19T03:07:02.063Z,2.80
2023-09-19T03:09:29.763Z,2.90
2023-09-19T03:11:57.302Z,2.90
2023-09-19T03:14:25.027Z,2.37
2023-09-19T03:16:52.646Z,2.53
2023-09-19T03:19:20.278Z,2.57
2023-09-19T03:21:47.829Z,2.30
2023-09-19T03:24:15.427Z,3.00
2023-09-19T03:26:43.027Z,2.97
2023-09-19T03:29:10.647Z,2.37
2023-09-19T03:31:38.463Z,3.13
2023-09-19T03:34:06.303Z,3.03
2023-09-19T03:36:37.209Z,2.57
2023-09-19T03:39:04.956Z,2.93
2023-09-19T03:41:33.080Z,3.13
2023-09-19T03:44:00.746Z,2.97
2023-09-19T03:46:28.373Z,2.77
2023-09-19T03:48:56.282Z,3.10
2023-09-19T03:51:23.862Z,2.87
2023-09-19T03:53:51.439Z,2.43
2023-09-19T03:56:19.046Z,2.47
2023-09-19T03:58:46.703Z,3.00
2023-09-19T04:01:14.508Z,2.80
2023-09-19T04:03:42.253Z,2.67
2023-09-19T04:06:09.867Z,2.90
2023-09-19T04:08:37.451Z,3.03
2023-09-19T04:11:05.062Z,2.90
2023-09-19T04:13:32.679Z,2.80
2023-09-19T04:16:00.318Z,2.80
2023-09-19T04:18:27.989Z,2.97
2023-09-19T04:20:55.590Z,2.83
2023-09-19T04:23:23.222Z,2.40
2023-09-19T04:25:50.852Z,2.67
2023-09-19T04:28:18.522Z,2.47
2023-09-19T04:30:46.167Z,2.70
2023-09-19T04:33:13.715Z,2.60
2023-09-19T04:35:41.332Z,2.93
2023-09-19T04:38:08.918Z,2.90
2023-09-19T04:40:36.595Z,2.93
2023-09-19T04:43:04.279Z,2.30
2023-09-19T04:45:31.904Z,2.83
2023-09-19T04:47:59.561Z,3.13
2023-09-19T04:50:27.256Z,3.63
2023-09-19T04:52:55.037Z,3.27
2023-09-19T04:55:22.749Z,3.10
2023-09-19T04:57:53.333Z,2.93
2023-09-19T05:00:21.682Z,3.10
2023-09-19T05:02:51.292Z,3.33
2023-09-19T05:05:19.145Z,2.77
2023-09-19T05:07:47.501Z,3.20
2023-09-19T05:10:15.495Z,3.47
2023-09-19T05:12:43.079Z,3.53
2023-09-19T05:15:10.863Z,3.07
2023-09-19T05:17:38.403Z,2.90
2023-09-19T05:20:06.309Z,3.23
2023-09-19T05:22:33.903Z,3.10
2023-09-19T05:25:01.518Z,2.50
2023-09-19T05:27:29.093Z,2.90
2023-09-19T05:29:56.686Z,2.87
2023-09-19T05:32:24.262Z,2.30
2023-09-19T05:34:51.931Z,2.47
2023-09-19T05:37:19.613Z,3.37
2023-09-19T05:39:47.251Z,3.23
2023-09-19T05:42:14.824Z,3.10
2023-09-19T05:44:42.479Z,2.77
2023-09-19T05:47:10.182Z,3.10
2023-09-19T05:49:38.649Z,3.27
2023-09-19T05:52:08.212Z,3.17
2023-09-19T05:54:35.846Z,3.30
2023-09-19T05:57:03.482Z,3.00
2023-09-19T05:59:31.032Z,3.10
2023-09-19T06:01:58.662Z,3.23
2023-09-19T06:04:26.311Z,2.63
2023-09-19T06:06:56.026Z,2.97
2023-09-19T06:09:24.259Z,3.17
2023-09-19T06:11:51.936Z,2.80
2023-09-19T06:14:19.671Z,2.60
2023-09-19T06:16:47.342Z,2.90
2023-09-19T06:19:14.976Z,2.50
2023-09-19T06:21:42.537Z,3.50
2023-09-19T06:24:10.268Z,2.80
2023-09-19T06:26:37.842Z,2.40
2023-09-19T06:29:05.450Z,2.70
2023-09-19T06:31:33.209Z,3.50
2023-09-19T06:34:01.005Z,3.10
2023-09-19T06:36:28.596Z,2.97
2023-09-19T06:38:56.265Z,3.00
2023-09-19T06:41:23.836Z,2.97
2023-09-19T06:43:51.503Z,2.53
2023-09-19T06:46:19.359Z,3.03
2023-09-19T06:48:47.044Z,2.67
2023-09-19T06:51:14.633Z,2.90
2023-09-19T06:53:42.291Z,3.20
2023-09-19T06:56:10.045Z,3.13
2023-09-19T06:58:37.714Z,3.27
2023-09-19T07:01:05.313Z,2.90
2023-09-19T07:03:32.969Z,3.20
2023-09-19T07:06:00.536Z,3.77
2023-09-19T07:08:28.153Z,2.80
2023-09-19T07:10:57.948Z,4.07
2023-09-19T07:13:25.728Z,3.67
2023-09-19T07:15:53.354Z,4.63
2023-09-19T07:18:20.953Z,3.80
2023-09-19T07:20:48.532Z,4.57
2023-09-19T07:23:22.620Z,3.17
2023-09-19T07:25:50.556Z,4.13
2023-09-19T07:28:18.263Z,3.23
2023-09-19T07:30:45.935Z,3.60
2023-09-19T07:33:13.565Z,3.13
2023-09-19T07:35:41.334Z,3.13
2023-09-19T07:38:09.242Z,2.70
2023-09-19T07:40:37.100Z,2.93
2023-09-19T07:43:04.834Z,3.13
2023-09-19T07:45:33.102Z,2.87
2023-09-19T07:48:04.001Z,2.50
2023-09-19T07:50:32.171Z,3.27
2023-09-19T07:52:59.755Z,2.80
2023-09-19T07:55:27.625Z,3.03
2023-09-19T07:57:55.224Z,2.80
2023-09-19T08:00:22.906Z,2.40
2023-09-19T08:02:53.971Z,3.00
2023-09-19T08:05:26.070Z,3.03
2023-09-19T08:07:54.546Z,2.47
2023-09-19T08:10:22.419Z,2.70
2023-09-19T08:12:50.562Z,2.70
2023-09-19T08:15:19.160Z,2.43
2023-09-19T08:17:46.979Z,2.80
2023-09-19T08:20:14.780Z,2.40
2023-09-19T08:22:42.325Z,2.47
2023-09-19T08:25:10.030Z,2.77
2023-09-19T08:27:37.628Z,3.30
2023-09-19T08:30:05.420Z,2.80
2023-09-19T08:32:33.026Z,2.70
2023-09-19T08:35:00.893Z,3.40
2023-09-19T08:37:28.624Z,2.93
2023-09-19T08:39:56.293Z,3.10
2023-09-19T08:42:24.197Z,2.77
2023-09-19T08:44:52.120Z,2.90
2023-09-19T08:47:21.949Z,2.63
2023-09-19T08:49:55.194Z,2.90
2023-09-19T08:52:27.055Z,3.20
2023-09-19T08:54:57.345Z,2.50
2023-09-19T08:57:25.317Z,3.13
2023-09-19T08:59:52.921Z,2.97
2023-09-19T09:02:20.823Z,2.97
2023-09-19T09:04:50.530Z,2.80
2023-09-19T09:07:18.426Z,2.60
2023-09-19T09:09:46.110Z,2.93
2023-09-19T09:12:14.147Z,3.07
2023-09-19T09:14:42.076Z,2.60
2023-09-19T09:17:09.821Z,2.63
2023-09-19T09:19:37.651Z,2.90
2023-09-19T09:22:11.707Z,3.10
2023-09-19T09:24:52.441Z,2.83
2023-09-19T09:27:20.201Z,2.80
2023-09-19T09:29:49.279Z,2.63
2023-09-19T09:32:19.750Z,2.50
2023-09-19T09:34:49.210Z,2.87
2023-09-19T09:37:17.750Z,3.00
2023-09-19T09:39:50.909Z,2.73
2023-09-19T09:42:30.662Z,2.67
2023-09-19T09:45:16.760Z,2.80
2023-09-19T09:47:48.177Z,2.97
2023-09-19T09:50:15.846Z,2.70
2023-09-19T09:52:46.648Z,2.70
2023-09-19T09:55:14.337Z,2.90
2023-09-19T09:57:41.894Z,3.10
2023-09-19T10:00:11.681Z,2.80
2023-09-19T10:02:39.407Z,3.10
2023-09-19T10:05:33.267Z,2.50
2023-09-19T10:08:11.610Z,2.53
2023-09-19T10:10:40.249Z,2.70
2023-09-19T10:13:08.591Z,2.53
2023-09-19T10:15:37.638Z,2.97
2023-09-19T10:18:08.756Z,2.70
2023-09-19T10:20:38.300Z,2.80
2023-09-19T10:23:07.531Z,2.90
2023-09-19T10:25:37.839Z,2.87
2023-09-19T10:28:07.318Z,2.50
2023-09-19T10:30:38.134Z,3.00
2023-09-19T10:33:06.260Z,2.50
2023-09-19T10:35:34.677Z,2.87
2023-09-19T10:38:02.786Z,3.03
2023-09-19T10:40:30.494Z,2.97
2023-09-19T10:43:02.608Z,2.70
2023-09-19T10:45:30.629Z,2.50
2023-09-19T10:47:58.156Z,2.60
2023-09-19T10:50:26.130Z,2.67
2023-09-19T10:52:55.628Z,3.03
2023-09-19T10:55:23.284Z,2.03
2023-09-19T10:57:50.858Z,2.40
2023-09-19T11:00:19.581Z,2.87
2023-09-19T11:03:07.172Z,2.87
2023-09-19T11:05:35.274Z,2.60
2023-09-19T11:08:02.901Z,2.80
2023-09-19T11:10:45.939Z,2.50
2023-09-19T11:13:29.545Z,2.30
2023-09-19T11:16:00.128Z,2.20
2023-09-19T11:18:52.961Z,2.87
2023-09-19T11:21:29.741Z,2.43
2023-09-19T11:24:23.889Z,2.77
2023-09-19T11:26:51.503Z,2.37
2023-09-19T11:29:34.152Z,2.50
2023-09-19T11:32:01.860Z,2.23
2023-09-19T11:34:38.516Z,2.37
2023-09-19T11:37:12.090Z,2.30
2023-09-19T11:39:40.014Z,2.07
2023-09-19T11:42:26.207Z,2.60
2023-09-19T11:44:54.461Z,2.30
2023-09-19T11:47:22.176Z,2.70
2023-09-19T11:49:49.903Z,2.97
2023-09-19T11:52:23.389Z,2.63
2023-09-19T11:54:56.037Z,2.17
2023-09-19T11:57:24.193Z,2.53
2023-09-19T11:59:51.758Z,2.53
2023-09-19T12:02:29.622Z,2.40
2023-09-19T12:04:57.356Z,2.67
2023-09-19T12:07:24.959Z,2.70
2023-09-19T12:10:03.968Z,2.67
2023-09-19T12:12:31.878Z,2.53
2023-09-19T12:14:59.527Z,2.60
2023-09-19T12:17:37.303Z,2.70
2023-09-19T12:20:05.351Z,2.73
2023-09-19T12:22:40.984Z,2.77
2023-09-19T12:25:08.698Z,2.70
2023-09-19T12:27:46.317Z,2.57
2023-09-19T12:32:45.260Z,2.60
2023-09-19T12:35:28.565Z,2.40
2023-09-19T12:37:56.192Z,2.10
2023-09-19T12:40:24.072Z,2.00
2023-09-19T12:42:51.753Z,2.23
2023-09-19T12:45:19.579Z,2.23
2023-09-19T12:48:13.485Z,2.23
2023-09-19T12:51:00.829Z,2.37
2023-09-19T12:53:28.612Z,2.10
2023-09-19T12:56:01.975Z,2.20
2023-09-19T12:58:30.159Z,1.97
2023-09-19T13:00:57.835Z,1.80
2023-09-19T13:03:25.560Z,2.20
2023-09-19T13:05:54.055Z,1.70
2023-09-19T13:08:22.422Z,2.10
2023-09-19T13:11:09.922Z,1.70
2023-09-19T13:13:38.330Z,1.83
2023-09-19T13:16:06.128Z,1.77
2023-09-19T13:18:33.731Z,1.87
2023-09-19T13:21:08.020Z,1.60
2023-09-19T13:23:35.734Z,1.70
2023-09-19T13:26:03.365Z,1.83
2023-09-19T13:28:31.069Z,1.80
2023-09-19T13:30:58.736Z,2.00
2023-09-19T13:33:26.350Z,1.77
2023-09-19T13:35:53.917Z,1.80
2023-09-19T13:38:21.580Z,1.60
2023-09-19T13:40:49.444Z,1.53
2023-09-19T13:43:17.063Z,1.30
2023-09-19T13:45:44.636Z,1.70
2023-09-19T13:48:12.289Z,1.70
2023-09-19T13:50:39.926Z,1.50
2023-09-19T13:53:07.538Z,1.40
2023-09-19T13:55:35.158Z,1.50
2023-09-19T13:58:02.784Z,1.50
2023-09-19T14:00:30.353Z,1.43
2023-09-19T14:02:58.006Z,1.50
2023-09-19T14:05:25.605Z,1.60
2023-09-19T14:07:53.378Z,1.30
2023-09-19T14:10:20.998Z,1.43
2023-09-19T14:12:48.750Z,1.07
2023-09-19T14:15:16.282Z,1.47
2023-09-19T14:17:43.983Z,1.20
2023-09-19T14:20:12.000Z,1.30
2023-09-19T14:22:39.729Z,1.47
2023-09-19T14:25:07.444Z,1.00
2023-09-19T14:27:35.061Z,1.47
2023-09-19T14:30:02.676Z,1.40
2023-09-19T14:32:30.290Z,1.20
2023-09-19T14:34:58.009Z,1.30
2023-09-19T14:37:25.610Z,1.10
2023-09-19T14:39:53.185Z,1.30
2023-09-19T14:42:20.746Z,1.33
2023-09-19T14:44:48.347Z,1.17
2023-09-19T14:47:16.020Z,1.37
2023-09-19T14:49:43.630Z,1.33
2023-09-19T14:52:11.967Z,1.10
2023-09-19T14:54:39.534Z,1.30
2023-09-19T14:57:07.202Z,1.40
2023-09-19T14:59:35.015Z,0.90
2023-09-19T15:02:02.658Z,0.90
2023-09-19T15:04:30.437Z,1.10
2023-09-19T15:06:58.248Z,1.00
2023-09-19T15:09:26.139Z,1.20
2023-09-19T15:11:57.139Z,1.17
2023-09-19T15:14:25.973Z,1.00
2023-09-19T15:16:53.706Z,1.00
2023-09-19T15:19:21.433Z,1.20
2023-09-19T15:21:49.013Z,1.10
2023-09-19T15:24:16.638Z,1.23
2023-09-19T15:26:44.206Z,1.40
2023-09-19T15:29:11.959Z,1.20
2023-09-19T15:31:39.750Z,1.10
2023-09-19T15:34:07.458Z,1.03
2023-09-19T15:36:35.021Z,1.40
2023-09-19T15:39:06.359Z,1.30
2023-09-19T15:41:37.812Z,1.00
2023-09-19T15:44:06.091Z,1.10
2023-09-19T15:46:34.343Z,1.37
2023-09-19T15:49:02.144Z,1.20
2023-09-19T15:51:29.707Z,1.23
2023-09-19T15:53:57.656Z,1.13
2023-09-19T15:56:25.685Z,1.27
2023-09-19T15:58:54.043Z,1.43
2023-09-19T16:01:22.399Z,1.23
2023-09-19T16:03:51.252Z,1.30
2023-09-19T16:06:19.388Z,1.27
2023-09-19T16:08:47.929Z,1.50
2023-09-19T16:11:15.926Z,1.20
2023-09-19T16:13:44.296Z,1.17
2023-09-19T16:16:13.144Z,1.53
2023-09-19T16:18:41.851Z,1.40
2023-09-19T16:21:09.679Z,1.80
2023-09-19T16:23:37.278Z,2.10
2023-09-19T16:26:06.138Z,2.60
2023-09-19T16:28:34.284Z,2.03
2023-09-19T16:31:02.243Z,1.77
2023-09-19T16:33:30.697Z,1.60
2023-09-19T16:35:58.247Z,1.93
2023-09-19T16:38:26.196Z,1.40
2023-09-19T16:41:03.406Z,1.47
2023-09-19T16:43:31.019Z,1.60
2023-09-19T16:45:59.459Z,1.60
2023-09-19T16:48:27.678Z,1.50
2023-09-19T16:50:55.825Z,1.37
2023-09-19T16:53:23.499Z,1.70
2023-09-19T16:55:51.097Z,1.80
2023-09-19T16:58:18.907Z,1.60
2023-09-19T17:00:46.536Z,1.83
2023-09-19T17:03:14.540Z,1.70
2023-09-19T17:05:42.617Z,1.50
2023-09-19T17:08:10.697Z,1.30
2023-09-19T17:10:38.378Z,1.43
2023-09-19T17:13:06.146Z,1.50
2023-09-19T17:15:38.353Z,1.60
2023-09-19T17:18:06.317Z,1.43
2023-09-19T17:20:34.188Z,1.30
2023-09-19T17:23:01.856Z,1.30
2023-09-19T17:25:29.425Z,1.50
2023-09-19T17:27:57.476Z,1.57
2023-09-19T17:30:25.024Z,1.40
2023-09-19T17:32:52.705Z,1.50
2023-09-19T17:35:20.891Z,1.33
2023-09-19T17:37:48.561Z,1.50
2023-09-19T17:40:16.229Z,1.20
2023-09-19T17:42:44.005Z,1.20
2023-09-19T17:45:11.938Z,1.30
2023-09-19T17:47:42.818Z,1.30
2023-09-19T17:50:10.871Z,1.40
2023-09-19T17:52:38.469Z,1.33
2023-09-19T17:55:06.411Z,1.50
2023-09-19T17:57:33.957Z,1.53
2023-09-19T18:00:01.545Z,1.70
2023-09-19T18:02:29.255Z,1.70
2023-09-19T18:04:57.174Z,1.43
2023-09-19T18:07:24.796Z,2.23
2023-09-19T18:09:52.541Z,1.67
2023-09-19T18:12:20.083Z,1.67
2023-09-19T18:14:47.740Z,1.57
2023-09-19T18:17:15.339Z,1.60
2023-09-19T18:19:42.988Z,1.40
2023-09-19T18:22:10.616Z,1.50
2023-09-19T18:24:38.243Z,1.60
2023-09-19T18:27:06.053Z,1.97
2023-09-19T18:29:33.680Z,1.40
2023-09-19T18:32:01.303Z,1.37
2023-09-19T18:34:28.946Z,1.83
2023-09-19T18:36:56.483Z,1.50
2023-09-19T18:39:24.093Z,2.07
2023-09-19T18:41:52.214Z,1.93
2023-09-19T18:44:19.878Z,1.70
2023-09-19T18:46:47.526Z,1.83
2023-09-19T18:49:15.261Z,1.50
2023-09-19T18:51:42.785Z,1.53
2023-09-19T18:54:13.559Z,1.43
2023-09-19T18:56:42.537Z,1.90
2023-09-19T18:59:10.217Z,1.77
2023-09-19T19:01:37.897Z,1.53
2023-09-19T19:04:05.543Z,1.60
2023-09-19T19:06:33.214Z,1.60
2023-09-19T19:09:00.822Z,1.50
2023-09-19T19:11:29.897Z,1.63
2023-09-19T19:13:57.559Z,1.90
2023-09-19T19:16:25.258Z,1.50
2023-09-19T19:18:52.873Z,1.63
2023-09-19T19:21:20.714Z,1.63
2023-09-19T19:23:48.385Z,1.50
2023-09-19T19:26:15.930Z,1.57
2023-09-19T19:28:44.345Z,1.93
2023-09-19T19:31:12.325Z,1.80
2023-09-19T19:33:40.238Z,1.63
2023-09-19T19:36:08.900Z,1.60
2023-09-19T19:38:36.841Z,1.40
2023-09-19T19:41:04.434Z,1.60
2023-09-19T19:43:32.487Z,1.90
2023-09-19T19:46:00.726Z,1.60
2023-09-19T19:48:28.684Z,1.77
2023-09-19T19:50:56.378Z,1.83
2023-09-19T19:53:26.155Z,1.90
2023-09-19T19:55:54.032Z,1.57
2023-09-19T19:58:21.622Z,1.80
2023-09-19T20:00:49.693Z,1.70
2023-09-19T20:03:17.433Z,1.70
2023-09-19T20:05:45.235Z,2.03
2023-09-19T20:08:12.865Z,1.70
2023-09-19T20:10:40.668Z,2.10
2023-09-19T20:13:08.635Z,1.50
2023-09-19T20:15:36.362Z,1.67
2023-09-19T20:18:04.020Z,1.73
2023-09-19T20:20:31.847Z,2.03
2023-09-19T20:22:59.407Z,1.67
2023-09-19T20:25:27.145Z,1.77
2023-09-19T20:27:55.100Z,1.60
2023-09-19T20:30:22.821Z,1.83
2023-09-19T20:32:51.268Z,1.93
2023-09-19T20:35:19.005Z,1.70
2023-09-19T20:37:46.717Z,1.80
2023-09-19T20:40:14.443Z,1.70
2023-09-19T20:42:42.046Z,2.00
2023-09-19T20:45:09.966Z,1.67
2023-09-19T20:47:37.757Z,1.70
2023-09-19T20:50:05.850Z,1.87
2023-09-19T20:52:33.830Z,1.93
2023-09-19T20:55:01.591Z,1.90
2023-09-19T20:57:29.184Z,2.27
2023-09-19T20:59:56.884Z,1.70
2023-09-19T21:02:24.539Z,1.93
2023-09-19T21:04:52.325Z,1.40
2023-09-19T21:07:19.945Z,1.63
2023-09-19T21:09:47.493Z,1.70
2023-09-19T21:12:15.126Z,2.07
2023-09-19T21:14:43.654Z,1.80
2023-09-19T21:17:11.390Z,1.90
2023-09-19T21:19:39.194Z,1.97
2023-09-19T21:22:06.745Z,1.77
2023-09-19T21:24:34.361Z,1.60
2023-09-19T21:27:01.972Z,2.03
2023-09-19T21:29:29.596Z,2.00
2023-09-19T21:31:57.816Z,1.97
2023-09-19T21:34:26.153Z,1.73
2023-09-19T21:36:56.517Z,1.60
2023-09-19T21:39:25.051Z,2.20
2023-09-19T21:41:53.067Z,1.80
2023-09-19T21:44:20.798Z,1.83
2023-09-19T21:46:48.606Z,2.17
2023-09-19T21:49:16.305Z,1.90
2023-09-19T21:51:43.854Z,1.90
2023-09-19T21:54:11.499Z,2.20
2023-09-19T21:56:39.011Z,2.07
2023-09-19T21:59:06.747Z,2.10
2023-09-19T22:01:34.342Z,1.70
2023-09-19T22:04:01.984Z,2.00
2023-09-19T22:06:29.553Z,2.00
2023-09-19T22:08:57.219Z,2.10
2023-09-19T22:11:24.801Z,1.97
2023-09-19T22:13:52.707Z,1.97
2023-09-19T22:16:20.513Z,2.17
2023-09-19T22:18:48.380Z,2.47
2023-09-19T22:21:16.430Z,2.20
2023-09-19T22:23:44.044Z,2.70
2023-09-19T22:26:12.208Z,2.20
2023-09-19T22:28:40.045Z,2.03
2023-09-19T22:31:17.470Z,1.70
2023-09-19T22:33:47.868Z,2.10
2023-09-19T22:36:15.455Z,2.00
2023-09-19T22:38:43.286Z,2.10
2023-09-19T22:41:11.103Z,1.93
2023-09-19T22:43:39.732Z,2.60
2023-09-19T22:46:07.334Z,2.10
2023-09-19T22:48:35.129Z,1.80
2023-09-19T22:51:02.683Z,2.10
2023-09-19T22:53:30.403Z,2.33
2023-09-19T22:55:58.066Z,2.27
2023-09-19T22:58:25.623Z,1.63
2023-09-19T23:00:53.239Z,2.17
2023-09-19T23:03:20.886Z,2.70
2023-09-19T23:05:48.661Z,2.03
2023-09-19T23:08:16.343Z,1.80
2023-09-19T23:10:44.579Z,1.90
2023-09-19T23:13:16.082Z,2.00
2023-09-19T23:15:43.817Z,1.90
2023-09-19T23:18:11.488Z,2.27
2023-09-19T23:20:40.009Z,2.20
2023-09-19T23:23:07.800Z,2.23
2023-09-19T23:25:35.490Z,2.00
2023-09-19T23:28:03.354Z,1.90
2023-09-19T23:30:31.030Z,1.97
2023-09-19T23:32:58.653Z,2.00
2023-09-19T23:35:26.389Z,1.93
2023-09-19T23:37:53.984Z,2.07
2023-09-19T23:40:21.671Z,2.30
2023-09-19T23:42:49.890Z,1.70
2023-09-19T23:45:17.796Z,1.90
2023-09-19T23:47:45.399Z,2.03
2023-09-19T23:50:13.054Z,2.30
2023-09-19T23:52:40.740Z,2.37
2023-09-19T23:55:08.558Z,1.97
2023-09-19T23:57:36.089Z,2.10
